Time;durP1;ratioP1;P1;durP2;ratioP2;P2;SDS_P1;SDS_P2;PMS_P1;PMS_P2;Temp;Humidity;BMP_temperature;BMP_pressure;BME280_temperature;BME280_humidity;BME280_pressure;Samples;Min_cycle;Max_cycle;Signal;HPM_P1;HPM_P2
2022/05/15 00:00:43;;;;;;;1071.38;999.72;;;;;;;15.56;50.55;101638.38;678296;28;137460;-68
2022/05/15 00:01:05;;;;;;;1073.70;999.90;;;;;;;15.57;50.73;101642.78;681548;28;44128;-69
2022/05/15 00:01:35;;;;;;;1073.97;999.90;;;;;;;15.58;50.54;101649.91;677643;28;139066;-69
2022/05/15 00:01:57;;;;;;;1069.43;997.80;;;;;;;15.57;50.72;101642.78;682902;28;20907;-67
2022/05/15 00:02:18;;;;;;;1060.13;988.83;;;;;;;15.54;50.71;101635.84;681470;28;46318;-68
2022/05/15 00:02:39;;;;;;;1077.68;999.90;;;;;;;15.52;50.58;101643.34;682779;28;23379;-68
2022/05/15 00:03:00;;;;;;;1079.70;999.90;;;;;;;15.54;50.39;101643.16;681184;28;46296;-67
2022/05/15 00:03:23;;;;;;;1087.07;999.90;;;;;;;15.52;50.67;101647.94;682517;28;22471;-68
2022/05/15 00:03:45;;;;;;;1096.03;999.90;;;;;;;15.50;50.92;101640.81;681365;28;46642;-68
2022/05/15 00:04:07;;;;;;;1110.47;999.90;;;;;;;15.45;50.63;101639.69;680491;28;69313;-68
2022/05/15 00:04:29;;;;;;;1108.05;999.90;;;;;;;15.48;50.80;101642.03;681203;28;45380;-68
2022/05/15 00:04:51;;;;;;;1093.97;999.90;;;;;;;15.47;51.01;101641.19;682466;28;24183;-67
2022/05/15 00:05:12;;;;;;;1115.18;999.90;;;;;;;15.47;50.84;101648.53;681969;28;46379;-68
2022/05/15 00:05:33;;;;;;;1117.30;999.90;;;;;;;15.44;50.81;101641.56;682435;28;21525;-69
2022/05/15 00:05:56;;;;;;;1117.13;999.90;;;;;;;15.43;50.64;101639.88;682167;28;23547;-68
2022/05/15 00:06:18;;;;;;;1119.53;999.90;;;;;;;15.42;50.84;101642.78;679046;28;90788;-68
2022/05/15 00:06:39;;;;;;;1117.00;999.90;;;;;;;15.42;50.86;101643.66;680935;28;46390;-67
2022/05/15 00:07:01;;;;;;;1090.57;999.90;;;;;;;15.42;51.06;101645.50;687716;28;21562;-68
2022/05/15 00:07:22;;;;;;;1074.25;999.90;;;;;;;15.41;51.20;101643.84;689557;28;23528;-67
2022/05/15 00:07:44;;;;;;;1082.30;999.90;;;;;;;15.41;50.85;101643.84;689408;28;23530;-68
2022/05/15 00:08:05;;;;;;;1091.80;999.90;;;;;;;15.41;51.10;101647.38;688741;28;45254;-68
2022/05/15 00:08:29;;;;;;;1107.60;999.90;;;;;;;15.34;50.84;101632.81;690092;28;1444;-68
2022/05/15 00:08:50;;;;;;;1108.28;999.90;;;;;;;15.39;50.93;101646.75;687039;28;92320;-67
2022/05/15 00:09:12;;;;;;;1107.70;999.90;;;;;;;15.39;50.97;101644.03;689398;28;22447;-67
2022/05/15 00:09:34;;;;;;;1112.15;999.90;;;;;;;15.39;50.97;101640.44;688008;28;43974;-68
2022/05/15 00:09:55;;;;;;;1115.70;999.90;;;;;;;15.37;50.82;101643.34;689619;28;23461;-69
2022/05/15 00:10:16;;;;;;;1124.88;999.90;;;;;;;15.38;51.16;101647.75;689443;28;22447;-68
2022/05/15 00:10:39;;;;;;;1128.63;999.90;;;;;;;15.35;51.24;101642.69;689647;28;22446;-68
2022/05/15 00:11:02;;;;;;;1139.28;999.90;;;;;;;15.35;51.00;101648.13;687752;28;69563;-67
2022/05/15 00:11:23;;;;;;;1153.32;999.90;;;;;;;15.35;51.23;101650.84;689054;28;5537;-68
2022/05/15 00:11:45;;;;;;;1146.43;999.90;;;;;;;15.34;51.13;101654.59;689241;28;23436;-67
2022/05/15 00:12:07;;;;;;;1151.80;999.90;;;;;;;15.31;51.35;101653.13;688742;28;44420;-68
2022/05/15 00:12:28;;;;;;;1159.35;999.90;;;;;;;15.31;51.11;101654.97;688001;28;69198;-68
2022/05/15 00:12:49;;;;;;;1165.38;999.90;;;;;;;15.27;51.26;101651.78;689224;28;19893;-68
2022/05/15 00:13:12;;;;;;;1153.88;999.90;;;;;;;15.28;51.51;101647.19;689358;28;22383;-68
2022/05/15 00:13:33;;;;;;;1156.05;999.90;;;;;;;15.27;51.52;101650.94;688881;28;39303;-69
2022/05/15 00:13:56;;;;;;;1165.63;999.90;;;;;;;15.25;51.62;101642.97;688853;28;22401;-68
2022/05/15 00:14:18;;;;;;;1176.50;999.90;;;;;;;15.24;51.55;101652.16;686502;28;90331;-68
2022/05/15 00:14:40;;;;;;;1170.50;999.90;;;;;;;15.23;51.65;101649.63;689025;28;45123;-68
2022/05/15 00:15:09;;;;;;;1167.65;999.90;;;;;;;15.20;51.66;101647.28;691662;28;1144;-68
2022/05/15 00:15:31;;;;;;;1162.05;999.90;;;;;;;15.13;51.54;101648.00;683975;28;93518;-68
2022/05/15 00:15:52;;;;;;;1177.55;999.90;;;;;;;15.18;51.80;101652.06;685458;28;46253;-68
2022/05/15 00:16:13;;;;;;;1175.32;999.90;;;;;;;15.14;51.82;101652.44;686451;28;21532;-68
2022/05/15 00:16:36;;;;;;;1171.43;999.90;;;;;;;15.13;51.84;101645.28;684782;28;44378;-68
2022/05/15 00:16:58;;;;;;;1167.63;999.90;;;;;;;15.12;51.74;101651.78;687212;28;44382;-68
2022/05/15 00:17:19;;;;;;;1183.63;999.90;;;;;;;15.12;51.61;101643.63;688695;28;40656;-68
2022/05/15 00:17:41;;;;;;;1178.38;999.90;;;;;;;15.12;51.94;101653.63;687311;28;1499;-67
2022/05/15 00:18:03;;;;;;;1178.38;999.90;;;;;;;15.12;51.66;101650.91;683856;28;45652;-67
2022/05/15 00:18:26;;;;;;;1180.75;999.90;;;;;;;15.10;51.81;101653.81;684217;28;45242;-69
2022/05/15 00:18:47;;;;;;;1184.97;999.90;;;;;;;15.08;51.78;101647.72;684084;28;69443;-68
2022/05/15 00:19:09;;;;;;;1187.70;999.90;;;;;;;15.07;51.91;101654.19;687750;28;23379;-68
2022/05/15 00:19:31;;;;;;;1189.15;999.90;;;;;;;15.05;52.08;101645.38;687256;28;46307;-68
2022/05/15 00:19:53;;;;;;;1186.68;999.90;;;;;;;15.09;51.71;101652.16;689278;28;45458;-69
2022/05/15 00:20:14;;;;;;;1188.22;999.90;;;;;;;15.09;52.07;101649.44;688542;28;45324;-68
2022/05/15 00:20:36;;;;;;;1184.40;999.90;;;;;;;15.08;52.05;101655.88;689441;28;22485;-68
2022/05/15 00:20:58;;;;;;;1177.93;999.90;;;;;;;15.07;51.82;101648.75;687931;28;70145;-68
2022/05/15 00:21:20;;;;;;;1181.97;999.90;;;;;;;15.04;52.13;101649.13;689310;28;21521;-68
2022/05/15 00:21:43;;;;;;;1189.72;999.90;;;;;;;15.06;52.01;101646.22;686408;28;92143;-68
2022/05/15 00:22:06;;;;;;;1184.38;999.90;;;;;;;15.06;51.73;101652.53;689710;28;21317;-68
2022/05/15 00:22:27;;;;;;;1184.13;999.90;;;;;;;15.03;52.10;101652.88;686860;28;92248;-68
2022/05/15 00:22:49;;;;;;;1182.88;999.90;;;;;;;15.01;51.82;101651.38;689528;28;22418;-68
2022/05/15 00:23:11;;;;;;;1182.32;999.90;;;;;;;14.96;52.00;101641.03;688602;28;45314;-68
2022/05/15 00:23:32;;;;;;;1180.75;999.90;;;;;;;14.99;52.03;101648.00;689333;28;22279;-67
2022/05/15 00:23:54;;;;;;;1184.53;999.90;;;;;;;14.98;52.20;101649.00;689686;28;25536;-67
2022/05/15 00:24:15;;;;;;;1184.55;999.90;;;;;;;14.97;52.13;101653.63;688919;28;29759;-70
2022/05/15 00:24:37;;;;;;;1182.97;999.90;;;;;;;14.96;51.98;101654.63;690092;28;1815;-68
2022/05/15 00:25:01;;;;;;;1185.20;999.90;;;;;;;14.94;51.94;101659.44;689767;28;22362;-68
2022/05/15 00:25:23;;;;;;;1179.03;999.90;;;;;;;14.94;52.02;101653.97;686303;28;115070;-68
2022/05/15 00:25:44;;;;;;;1179.80;999.90;;;;;;;14.95;52.10;101650.22;688836;28;44450;-67
2022/05/15 00:26:07;;;;;;;1184.80;999.90;;;;;;;14.93;52.39;101649.56;689747;28;22257;-70
2022/05/15 00:26:29;;;;;;;1186.88;999.90;;;;;;;14.91;52.45;101649.75;686268;28;67467;-68
2022/05/15 00:26:50;;;;;;;1185.57;999.90;;;;;;;14.92;52.39;101653.31;685737;28;45995;-68
2022/05/15 00:27:11;;;;;;;1185.53;999.90;;;;;;;14.91;52.40;101652.47;688902;28;23542;-67
2022/05/15 00:27:32;;;;;;;1186.45;999.90;;;;;;;14.91;52.30;101647.03;689403;28;24296;-68
2022/05/15 00:27:53;;;;;;;1186.38;999.90;;;;;;;14.89;52.11;101648.22;689201;28;22610;-69
2022/05/15 00:28:15;;;;;;;1183.40;999.90;;;;;;;14.91;52.07;101655.19;689269;28;22363;-68
2022/05/15 00:28:37;;;;;;;1186.65;999.90;;;;;;;14.90;52.42;101655.38;685399;28;69391;-68
2022/05/15 00:28:58;;;;;;;1184.65;999.90;;;;;;;14.88;52.40;101650.13;686613;28;22367;-68
2022/05/15 00:29:19;;;;;;;1185.30;999.90;;;;;;;14.84;52.23;101640.63;686254;28;22391;-68
2022/05/15 00:29:41;;;;;;;1187.20;999.90;;;;;;;14.87;52.16;101648.41;685960;28;23770;-68
2022/05/15 00:30:03;;;;;;;1184.82;999.90;;;;;;;14.86;52.65;101648.59;686176;28;46317;-67
2022/05/15 00:30:25;;;;;;;1184.47;999.90;;;;;;;14.84;52.31;101647.94;682069;28;44827;-68
2022/05/15 00:30:47;;;;;;;1182.50;999.90;;;;;;;14.82;52.57;101650.84;680843;28;44377;-70
2022/05/15 00:31:18;;;;;;;1181.25;999.90;;;;;;;14.75;52.29;101639.03;683030;28;97038;-68
2022/05/15 00:31:41;;;;;;;1184.60;999.90;;;;;;;14.81;52.54;101654.59;687156;28;46328;-69
2022/05/15 00:32:02;;;;;;;1184.10;999.90;;;;;;;14.78;52.44;101650.38;688476;28;45041;-68
2022/05/15 00:32:23;;;;;;;1184.68;999.90;;;;;;;14.78;52.56;101660.41;688858;28;23465;-67
2022/05/15 00:32:44;;;;;;;1182.88;999.90;;;;;;;14.76;52.67;101655.16;689138;28;22391;-68
2022/05/15 00:33:06;;;;;;;1185.82;999.90;;;;;;;14.74;52.64;101649.03;687423;28;22224;-67
2022/05/15 00:33:28;;;;;;;1187.43;999.90;;;;;;;14.71;52.76;101648.56;682337;28;69419;-68
2022/05/15 00:33:49;;;;;;;1183.35;999.90;;;;;;;14.70;52.67;101649.56;681550;28;22384;-68
2022/05/15 00:34:10;;;;;;;1179.47;999.90;;;;;;;14.71;52.92;101646.69;681685;28;22423;-68
2022/05/15 00:34:32;;;;;;;1185.60;999.90;;;;;;;14.72;52.66;101658.41;683483;28;22435;-67
2022/05/15 00:34:53;;;;;;;1183.78;999.90;;;;;;;14.71;52.86;101654.00;683163;28;43658;-68
2022/05/15 00:35:15;;;;;;;1183.97;999.90;;;;;;;14.71;52.82;101656.72;684636;28;22498;-69
2022/05/15 00:35:37;;;;;;;1183.45;999.90;;;;;;;14.70;52.99;101652.28;688226;28;1528;-68
2022/05/15 00:35:59;;;;;;;1181.80;999.90;;;;;;;14.70;52.88;101652.28;688415;28;45290;-69
2022/05/15 00:36:20;;;;;;;1184.68;999.90;;;;;;;14.67;52.54;101650.81;685387;28;44398;-69
2022/05/15 00:36:41;;;;;;;1183.50;999.90;;;;;;;14.68;52.67;101655.19;685862;28;23239;-68
2022/05/15 00:37:02;;;;;;;1184.18;999.90;;;;;;;14.69;53.03;101659.63;686800;28;21528;-68
2022/05/15 00:37:24;;;;;;;1180.43;999.90;;;;;;;14.69;52.92;101654.19;689544;28;1489;-68
2022/05/15 00:37:46;;;;;;;1182.72;999.90;;;;;;;14.68;52.91;101651.66;688265;28;46614;-69
2022/05/15 00:38:08;;;;;;;1185.18;999.90;;;;;;;14.66;52.92;101649.09;689029;28;46334;-69
2022/05/15 00:38:31;;;;;;;1182.88;999.90;;;;;;;14.66;52.93;101651.81;687628;28;69262;-69
2022/05/15 00:38:52;;;;;;;1184.95;999.90;;;;;;;14.65;52.96;101652.84;688494;28;46315;-68
2022/05/15 00:39:14;;;;;;;1184.78;999.90;;;;;;;14.63;53.06;101652.19;688939;28;23415;-68
2022/05/15 00:39:35;;;;;;;1183.22;999.90;;;;;;;14.62;53.21;101658.63;687696;28;46313;-68
2022/05/15 00:39:57;;;;;;;1184.72;999.90;;;;;;;14.62;52.87;101649.66;689434;28;22552;-68
2022/05/15 00:40:21;;;;;;;1179.18;999.90;;;;;;;14.61;52.86;101651.53;688953;28;46398;-68
2022/05/15 00:40:45;;;;;;;1181.65;999.90;;;;;;;14.57;53.26;101644.72;689169;28;93134;-70
2022/05/15 00:41:08;;;;;;;1185.07;999.90;;;;;;;14.53;52.93;101646.09;688098;28;92356;-67
2022/05/15 00:41:42;;;;;;;1182.88;999.90;;;;;;;14.56;53.42;101653.91;682498;28;138239;-67
2022/05/15 00:42:08;;;;;;;1183.03;999.90;;;;;;;14.55;53.12;101646.78;682485;28;138737;-69
2022/05/15 00:42:29;;;;;;;1183.15;999.90;;;;;;;14.52;53.32;101647.97;684839;28;69164;-67
2022/05/15 00:42:50;;;;;;;1180.43;999.90;;;;;;;14.52;53.25;101650.69;683490;28;22236;-69
2022/05/15 00:43:14;;;;;;;1182.25;999.90;;;;;;;14.53;53.62;101651.53;683092;28;22406;-68
2022/05/15 00:43:39;;;;;;;1178.30;999.90;;;;;;;14.52;53.57;101652.59;680298;28;90152;-67
2022/05/15 00:44:01;;;;;;;1183.28;999.90;;;;;;;14.52;53.22;101652.59;680365;28;115985;-67
2022/05/15 00:44:23;;;;;;;1175.40;999.90;;;;;;;14.50;53.22;101652.75;683380;28;22377;-67
2022/05/15 00:44:44;;;;;;;1179.95;999.90;;;;;;;14.49;53.56;101658.38;682338;28;67844;-69
2022/05/15 00:45:07;;;;;;;1179.00;999.90;;;;;;;14.50;53.33;101654.63;685419;28;24183;-67
2022/05/15 00:45:28;;;;;;;1182.25;999.90;;;;;;;14.46;53.22;101648.69;686924;28;46344;-67
2022/05/15 00:45:50;;;;;;;1182.93;999.90;;;;;;;14.46;53.23;101645.16;685438;28;46383;-68
2022/05/15 00:46:14;;;;;;;1184.35;999.90;;;;;;;14.47;53.28;101650.41;685866;28;46388;-68
2022/05/15 00:46:38;;;;;;;1186.00;999.90;;;;;;;14.46;53.68;101648.69;681654;28;92233;-68
2022/05/15 00:46:59;;;;;;;1181.15;999.90;;;;;;;14.45;53.56;101651.59;681138;28;91152;-67
2022/05/15 00:47:21;;;;;;;1181.85;999.90;;;;;;;14.45;53.28;101648.88;684538;28;24562;-69
2022/05/15 00:47:42;;;;;;;1178.93;999.90;;;;;;;14.45;53.64;101652.47;686741;28;46706;-68
2022/05/15 00:48:04;;;;;;;1181.68;999.90;;;;;;;14.40;53.64;101644.84;689078;28;23581;-67
2022/05/15 00:48:25;;;;;;;1182.75;999.90;;;;;;;14.43;53.47;101654.50;688805;28;12749;-68
2022/05/15 00:48:47;;;;;;;1180.57;999.90;;;;;;;14.42;53.52;101648.22;689373;28;22221;-70
2022/05/15 00:49:11;;;;;;;1182.05;999.90;;;;;;;14.42;53.70;101653.66;685212;28;44379;-68
2022/05/15 00:49:33;;;;;;;1179.38;999.90;;;;;;;14.41;53.48;101653.84;684452;28;69408;-69
2022/05/15 00:49:55;;;;;;;1181.85;999.90;;;;;;;14.41;53.74;101651.13;685150;28;69451;-68
2022/05/15 00:50:21;;;;;;;1180.00;999.90;;;;;;;14.36;53.68;101639.97;685389;28;46375;-68
2022/05/15 00:50:42;;;;;;;1180.88;999.90;;;;;;;14.36;53.49;101651.66;685883;28;38094;-67
2022/05/15 00:51:09;;;;;;;1179.13;999.90;;;;;;;14.36;53.50;101648.94;687507;28;43651;-68
2022/05/15 00:51:36;;;;;;;1181.88;999.90;;;;;;;14.34;53.83;101651.00;680105;28;158766;-67
2022/05/15 00:52:00;;;;;;;1178.72;999.90;;;;;;;14.35;53.71;101649.97;682683;28;138100;-68
2022/05/15 00:52:23;;;;;;;1177.30;999.90;;;;;;;14.31;53.76;101645.94;682644;28;115930;-67
2022/05/15 00:52:47;;;;;;;1181.32;999.90;;;;;;;14.33;53.54;101652.03;682674;28;44344;-68
2022/05/15 00:53:11;;;;;;;1183.93;999.90;;;;;;;14.30;53.94;101648.81;680752;28;115380;-67
2022/05/15 00:53:33;;;;;;;1180.65;999.90;;;;;;;14.28;54.12;101654.44;682923;28;92376;-69
2022/05/15 00:53:57;;;;;;;1179.95;999.90;;;;;;;14.27;54.11;101654.63;684784;28;45233;-68
2022/05/15 00:54:23;;;;;;;1183.95;999.90;;;;;;;14.24;54.21;101653.09;682351;28;115180;-68
2022/05/15 00:54:47;;;;;;;1182.60;999.90;;;;;;;14.21;54.19;101648.84;682627;28;113535;-68
2022/05/15 00:55:13;;;;;;;1183.22;999.90;;;;;;;14.23;53.85;101656.81;685715;28;115014;-68
2022/05/15 00:55:38;;;;;;;1183.45;999.90;;;;;;;14.22;53.93;101656.00;684713;28;114983;-68
2022/05/15 00:55:59;;;;;;;1183.93;999.90;;;;;;;14.21;54.18;101656.16;684916;28;114304;-68
2022/05/15 00:56:24;;;;;;;1185.35;999.90;;;;;;;14.17;54.19;101642.09;682924;28;22432;-68
2022/05/15 00:56:48;;;;;;;1182.63;999.90;;;;;;;14.20;53.96;101651.75;675572;29;157664;-68
2022/05/15 00:57:14;;;;;;;1184.25;999.90;;;;;;;14.18;53.92;101651.09;678868;29;92391;-68
2022/05/15 00:57:38;;;;;;;1183.03;999.90;;;;;;;14.20;54.06;101649.03;680304;28;115152;-68
2022/05/15 00:58:02;;;;;;;1184.45;999.90;;;;;;;14.17;54.07;101646.66;680751;28;115037;-68
2022/05/15 00:58:25;;;;;;;1181.93;999.90;;;;;;;14.19;54.32;101653.63;684674;28;69034;-68
2022/05/15 00:58:50;;;;;;;1184.15;999.90;;;;;;;14.17;54.15;101652.09;680164;28;92496;-68
2022/05/15 00:59:14;;;;;;;1184.47;999.90;;;;;;;14.18;54.07;101651.94;680321;28;92282;-68
2022/05/15 00:59:38;;;;;;;1185.72;999.90;;;;;;;14.17;54.45;101646.66;682878;28;92253;-68
2022/05/15 01:00:03;;;;;;;1185.38;999.90;;;;;;;14.17;54.38;101657.53;681992;28;115040;-68
2022/05/15 01:00:27;;;;;;;1178.45;999.90;;;;;;;14.14;54.16;101649.78;681988;28;116383;-68
2022/05/15 01:00:49;;;;;;;1182.78;999.90;;;;;;;14.11;54.40;101641.97;682678;28;92155;-68
2022/05/15 01:01:10;;;;;;;1183.37;999.90;;;;;;;14.11;54.38;101648.25;683365;28;69388;-67
2022/05/15 01:01:31;;;;;;;1185.57;999.90;;;;;;;14.10;54.56;101653.88;682277;28;46352;-68
2022/05/15 01:01:53;;;;;;;1185.60;999.90;;;;;;;14.05;54.63;101648.97;685899;28;22242;-68
2022/05/15 01:02:17;;;;;;;1186.50;999.90;;;;;;;14.05;54.16;101648.97;684600;28;69233;-68
2022/05/15 01:02:40;;;;;;;1182.35;999.90;;;;;;;14.06;54.55;101653.38;685766;28;46163;-68
2022/05/15 01:03:05;;;;;;;1177.63;999.90;;;;;;;14.06;54.37;101645.22;682649;28;69293;-68
2022/05/15 01:03:27;;;;;;;1181.18;999.90;;;;;;;14.06;54.38;101654.22;682078;28;76877;-68
2022/05/15 01:03:48;;;;;;;1183.47;999.90;;;;;;;14.06;54.43;101653.38;682062;28;44308;-68
2022/05/15 01:04:09;;;;;;;1183.07;999.90;;;;;;;14.02;54.47;101641.16;683621;28;46417;-68
2022/05/15 01:04:31;;;;;;;1183.68;999.90;;;;;;;14.04;54.39;101647.25;685319;28;22827;-68
2022/05/15 01:04:52;;;;;;;1180.53;999.90;;;;;;;14.06;54.63;101650.66;683845;28;46213;-68
2022/05/15 01:05:17;;;;;;;1181.63;999.90;;;;;;;14.05;54.34;101655.22;684389;28;22450;-68
2022/05/15 01:05:43;;;;;;;1179.70;999.90;;;;;;;14.04;54.38;101652.69;683279;28;115145;-68
2022/05/15 01:06:05;;;;;;;1177.88;999.90;;;;;;;14.06;54.75;101653.38;680309;28;138604;-68
2022/05/15 01:06:28;;;;;;;1178.47;999.90;;;;;;;14.04;54.43;101661.72;683134;28;46278;-68
2022/05/15 01:06:49;;;;;;;1181.57;999.90;;;;;;;14.02;54.47;101655.59;688924;28;45248;-68
2022/05/15 01:07:10;;;;;;;1179.90;999.90;;;;;;;14.04;54.53;101649.97;689022;28;45107;-68
2022/05/15 01:07:32;;;;;;;1179.38;999.90;;;;;;;14.01;54.68;101651.19;688948;28;23487;-68
2022/05/15 01:07:54;;;;;;;1180.43;999.90;;;;;;;14.03;54.67;101653.72;689118;28;22390;-68
2022/05/15 01:08:19;;;;;;;1178.05;999.90;;;;;;;13.99;54.58;101650.50;683894;28;137794;-68
2022/05/15 01:08:41;;;;;;;1176.85;999.90;;;;;;;13.99;54.37;101650.50;689129;28;46648;-68
2022/05/15 01:09:03;;;;;;;1181.18;999.90;;;;;;;13.93;54.52;101645.78;687280;28;22396;-68
2022/05/15 01:09:25;;;;;;;1177.45;999.90;;;;;;;13.98;54.31;101656.97;685535;28;69380;-68
2022/05/15 01:09:48;;;;;;;1181.55;999.90;;;;;;;13.96;54.42;101660.88;686913;28;13116;-68
2022/05/15 01:10:10;;;;;;;1179.95;999.90;;;;;;;13.95;54.60;101656.47;682783;28;67434;-68
2022/05/15 01:10:35;;;;;;;1180.38;999.90;;;;;;;13.93;54.78;101653.09;683311;28;90265;-68
2022/05/15 01:11:00;;;;;;;1182.10;999.90;;;;;;;13.91;54.68;101655.16;685347;28;35478;-68
2022/05/15 01:11:24;;;;;;;1182.43;999.90;;;;;;;13.90;54.71;101659.72;684350;28;89685;-68
2022/05/15 01:11:46;;;;;;;1182.88;999.90;;;;;;;13.91;54.87;101655.16;681308;28;88534;-68
2022/05/15 01:12:09;;;;;;;1181.25;999.90;;;;;;;13.91;54.93;101657.88;684442;28;69526;-68
2022/05/15 01:12:31;;;;;;;1183.13;999.90;;;;;;;13.86;54.58;101653.78;680843;28;47623;-68
2022/05/15 01:12:53;;;;;;;1184.07;999.90;;;;;;;13.88;54.64;101659.88;681893;28;69404;-67
2022/05/15 01:13:15;;;;;;;1182.93;999.90;;;;;;;13.87;55.03;101655.50;684651;28;19761;-68
2022/05/15 01:13:37;;;;;;;1183.25;999.90;;;;;;;13.88;54.65;101659.88;681135;28;44338;-68
2022/05/15 01:14:00;;;;;;;1181.90;999.90;;;;;;;13.88;54.97;101651.75;678576;29;45281;-68
2022/05/15 01:14:22;;;;;;;1183.53;999.90;;;;;;;13.87;55.07;101655.50;677435;29;93158;-68
2022/05/15 01:14:45;;;;;;;1180.72;999.90;;;;;;;13.85;54.89;101652.09;680806;29;46439;-68
2022/05/15 01:15:08;;;;;;;1181.93;999.90;;;;;;;13.87;54.71;101657.34;679701;29;67481;-68
2022/05/15 01:15:32;;;;;;;1182.80;999.90;;;;;;;13.85;55.00;101651.25;678305;29;92965;-68
2022/05/15 01:15:56;;;;;;;1182.90;999.90;;;;;;;13.85;54.65;101654.81;680718;28;115855;-68
2022/05/15 01:16:21;;;;;;;1183.78;999.90;;;;;;;13.85;55.06;101654.81;680886;28;44448;-68
2022/05/15 01:16:43;;;;;;;1184.18;999.90;;;;;;;13.81;55.18;101655.38;681191;28;87954;-68
2022/05/15 01:17:05;;;;;;;1182.38;999.90;;;;;;;13.84;54.64;101654.97;680937;28;46637;-68
2022/05/15 01:17:26;;;;;;;1184.47;999.90;;;;;;;13.84;55.14;101652.28;680946;28;45231;-68
2022/05/15 01:17:47;;;;;;;1183.55;999.90;;;;;;;13.83;54.57;101658.75;682712;28;21539;-68
2022/05/15 01:18:10;;;;;;;1183.47;999.90;;;;;;;13.84;55.21;101649.56;683555;28;44359;-68
2022/05/15 01:18:33;;;;;;;1185.63;999.90;;;;;;;13.83;54.82;101656.03;682994;28;69445;-68
2022/05/15 01:18:55;;;;;;;1183.78;999.90;;;;;;;13.79;55.19;101649.25;684297;28;46593;-68
2022/05/15 01:19:29;;;;;;;1182.32;999.90;;;;;;;13.82;55.12;101652.47;682674;28;70357;-68
2022/05/15 01:19:50;;;;;;;1183.93;999.90;;;;;;;13.79;55.08;101658.25;681363;28;104123;-68
2022/05/15 01:20:13;;;;;;;1182.30;999.90;;;;;;;13.79;54.79;101660.97;683385;28;23531;-68
2022/05/15 01:20:36;;;;;;;1182.88;999.90;;;;;;;13.77;55.17;101656.72;682836;28;93040;-67
2022/05/15 01:20:59;;;;;;;1181.93;999.90;;;;;;;13.75;55.07;101653.34;685928;28;45230;-68
2022/05/15 01:21:25;;;;;;;1183.18;999.90;;;;;;;13.72;54.84;101651.81;684447;28;93117;-68
2022/05/15 01:21:53;;;;;;;1185.28;999.90;;;;;;;13.73;54.99;101658.97;676669;28;158625;-68
2022/05/15 01:22:15;;;;;;;1182.40;999.90;;;;;;;13.73;55.00;101656.25;678012;28;115312;-68
2022/05/15 01:22:36;;;;;;;1178.80;999.90;;;;;;;13.73;55.05;101660.81;684192;28;22313;-68
2022/05/15 01:22:59;;;;;;;1180.63;999.90;;;;;;;13.72;55.32;101653.69;680999;28;46401;-68
2022/05/15 01:23:20;;;;;;;1173.45;999.90;;;;;;;13.66;55.27;101650.66;680688;29;47477;-68
2022/05/15 01:23:42;;;;;;;1177.03;999.90;;;;;;;13.70;55.03;101659.31;682147;28;47324;-68
2022/05/15 01:24:06;;;;;;;1177.78;999.90;;;;;;;13.65;54.96;101654.41;684937;28;21526;-68
2022/05/15 01:24:31;;;;;;;1181.45;999.90;;;;;;;13.69;55.06;101660.31;684712;28;61247;-68
2022/05/15 01:24:53;;;;;;;1179.80;999.90;;;;;;;13.65;55.28;101654.41;685807;28;69449;-68
2022/05/15 01:25:17;;;;;;;1177.80;999.90;;;;;;;13.64;55.37;101652.69;688315;28;23514;-68
2022/05/15 01:25:38;;;;;;;1181.63;999.90;;;;;;;13.63;55.50;101659.13;684535;28;90327;-68
2022/05/15 01:26:01;;;;;;;1178.00;999.90;;;;;;;13.64;55.14;101654.56;683002;28;68313;-68
2022/05/15 01:26:25;;;;;;;1179.13;999.90;;;;;;;13.54;55.40;101638.47;680718;28;69433;-68
2022/05/15 01:26:48;;;;;;;1175.20;999.90;;;;;;;13.61;55.69;101663.06;678556;29;65728;-68
2022/05/15 01:27:12;;;;;;;1176.30;999.90;;;;;;;13.61;55.36;101658.47;677686;28;92306;-68
2022/05/15 01:27:34;;;;;;;1177.35;999.90;;;;;;;13.60;55.25;101658.66;678629;29;66785;-68
2022/05/15 01:27:59;;;;;;;1179.30;999.90;;;;;;;13.56;55.73;101652.72;677896;29;22391;-67
2022/05/15 01:28:23;;;;;;;1179.90;999.90;;;;;;;13.54;55.49;101648.50;675008;29;134144;-68
2022/05/15 01:28:45;;;;;;;1179.47;999.90;;;;;;;13.59;55.53;101662.38;678357;28;115269;-68
2022/05/15 01:29:08;;;;;;;1179.72;999.90;;;;;;;13.59;55.62;101659.66;682780;28;21931;-68
2022/05/15 01:29:31;;;;;;;1181.15;999.90;;;;;;;13.59;55.29;101659.66;686148;28;45224;-68
2022/05/15 01:29:55;;;;;;;1185.25;999.90;;;;;;;13.57;55.75;101651.69;682126;28;113532;-68
2022/05/15 01:30:16;;;;;;;1183.15;999.90;;;;;;;13.54;55.73;101652.03;685111;28;45259;-68
2022/05/15 01:30:41;;;;;;;1178.60;999.90;;;;;;;13.58;55.29;101660.69;681599;28;46371;-68
2022/05/15 01:31:02;;;;;;;1178.32;999.90;;;;;;;13.58;55.33;101661.53;679170;29;92270;-68
2022/05/15 01:31:25;;;;;;;1180.97;999.90;;;;;;;13.57;55.63;101651.69;680624;29;22503;-68
2022/05/15 01:31:48;;;;;;;1180.63;999.90;;;;;;;13.58;55.66;101655.28;679905;28;115153;-68
2022/05/15 01:32:11;;;;;;;1180.25;999.90;;;;;;;13.57;55.62;101645.44;682223;28;45259;-68
2022/05/15 01:32:32;;;;;;;1179.10;999.90;;;;;;;13.57;55.22;101654.41;684313;28;45286;-68
2022/05/15 01:32:57;;;;;;;1177.88;999.90;;;;;;;13.57;55.36;101661.72;679286;28;92276;-68
2022/05/15 01:33:21;;;;;;;1175.53;999.90;;;;;;;13.57;55.50;101659.00;677601;28;115994;-68
2022/05/15 01:33:46;;;;;;;1177.30;999.90;;;;;;;13.58;55.33;101660.69;680580;29;21563;-68
2022/05/15 01:34:09;;;;;;;1175.15;999.90;;;;;;;13.58;55.71;101664.25;679760;28;115932;-68
2022/05/15 01:34:30;;;;;;;1178.80;999.90;;;;;;;13.60;55.42;101659.50;684432;28;67471;-68
2022/05/15 01:34:51;;;;;;;1181.50;999.90;;;;;;;13.59;55.54;101663.25;687089;28;23523;-67
2022/05/15 01:35:13;;;;;;;1180.47;999.90;;;;;;;13.60;55.51;101659.50;685852;28;22398;-68
2022/05/15 01:35:34;;;;;;;1177.30;999.90;;;;;;;13.59;55.63;101655.09;680932;28;45249;-68
2022/05/15 01:35:58;;;;;;;1180.38;999.90;;;;;;;13.61;55.31;101660.34;680006;28;69443;-68
2022/05/15 01:36:23;;;;;;;1178.25;999.90;;;;;;;13.60;55.46;101656.78;678718;29;46078;-68
2022/05/15 01:36:44;;;;;;;1176.97;999.90;;;;;;;13.61;55.50;101663.06;677196;29;135047;-68
2022/05/15 01:37:06;;;;;;;1177.78;999.90;;;;;;;13.63;55.18;101664.56;682342;28;45044;-68
2022/05/15 01:37:29;;;;;;;1180.35;999.90;;;;;;;13.63;55.12;101667.28;683305;28;45363;-69
2022/05/15 01:37:51;;;;;;;1178.85;999.90;;;;;;;13.61;55.55;101663.91;681200;28;69269;-68
2022/05/15 01:38:12;;;;;;;1178.13;999.90;;;;;;;13.62;55.20;101657.47;680515;29;23432;-68
2022/05/15 01:38:34;;;;;;;1176.40;999.90;;;;;;;13.61;55.24;101665.78;678822;29;46343;-68
2022/05/15 01:38:55;;;;;;;1180.57;999.90;;;;;;;13.59;55.32;101662.38;681451;28;23447;-68
2022/05/15 01:39:18;;;;;;;1182.88;999.90;;;;;;;13.60;55.47;101667.63;680894;28;46425;-68
2022/05/15 01:39:39;;;;;;;1182.88;999.90;;;;;;;13.60;55.02;101664.91;683612;28;45349;-68
2022/05/15 01:40:03;;;;;;;1182.43;999.90;;;;;;;13.58;55.49;101661.53;683900;28;44410;-68
2022/05/15 01:40:24;;;;;;;1184.63;999.90;;;;;;;13.58;55.26;101664.25;681723;28;92356;-68
2022/05/15 01:40:50;;;;;;;1183.93;999.90;;;;;;;13.57;55.15;101665.25;683724;28;46677;-68